This is the latest recevied weather packets stored in our database for station/object KC1OEK-13. If no packets are shown the sender has not sent any weather packets the latest 10 day(s).
| Time | Temp. | Humidity | Pressure | Rain* | Wind** | Luminosity | Snow |
|---|---|---|---|---|---|---|---|
| 1777299630 | 16.67° C | 45% | 1026.1 hPa | 0 mm | - | 589 W/m² | - |
| 1777299328 | 16.67° C | 44% | 1026.1 hPa | 0 mm | - | 576 W/m² | - |
| 1777299026 | 16.67° C | 45% | 1026.2 hPa | 0 mm | - | 565 W/m² | - |
| 1777298723 | 16.67° C | 46% | 1026.1 hPa | 0 mm | - | 553 W/m² | - |
| 1777298418 | 16.67° C | 46% | 1026 hPa | 0 mm | - | 542 W/m² | - |
| 1777298115 | 16.11° C | 49% | 1025.8 hPa | 0 mm | - | 526 W/m² | - |
| 1777297809 | 16.11° C | 44% | 1026 hPa | 0 mm | - | 518 W/m² | - |
| 1777297508 | 15.56° C | 44% | 1025.9 hPa | 0 mm | - | 505 W/m² | - |
| 1777297204 | 15.56° C | 45% | 1026 hPa | 0 mm | - | 493 W/m² | - |
| 1777296901 | 15.56° C | 44% | 1025.8 hPa | 0 mm | - | 480 W/m² | - |
| 1777296591 | 15° C | 48% | 1026.1 hPa | 0 mm | - | 458 W/m² | - |
| 1777296262 | 15.56° C | 50% | 1025.8 hPa | 0 mm | - | 449 W/m² | - |
| 1777295958 | 15° C | 51% | 1025.8 hPa | 0 mm | - | 436 W/m² | - |
| 1777295656 | 15° C | 53% | 1025.6 hPa | 0 mm | - | 421 W/m² | - |
| 1777295353 | 13.89° C | 57% | 1025.7 hPa | 0 mm | - | 407 W/m² | - |
| 1777295051 | 13.33° C | 60% | 1025.7 hPa | 0 mm | - | 394 W/m² | - |
| 1777294747 | 12.22° C | 68% | 1025.8 hPa | 0 mm | - | 369 W/m² | - |
| 1777294443 | 11.11° C | 73% | 1025.9 hPa | 0 mm | - | 345 W/m² | - |
| 1777294140 | 10.56° C | 75% | 1025.7 hPa | 0 mm | - | 323 W/m² | - |
| 1777293837 | 10.56° C | 76% | 1025.8 hPa | 0 mm | - | 299 W/m² | - |
| 1777293532 | 9.44° C | 81% | 1025.9 hPa | 0 mm | - | 269 W/m² | - |
| 1777293228 | 8.33° C | 83% | 1025.8 hPa | 0 mm | - | 252 W/m² | - |
| 1777292927 | 7.78° C | 89% | 1025.6 hPa | 0 mm | - | 234 W/m² | - |
| 1777292623 | 6.67° C | 91% | 1025.6 hPa | 0 mm | - | 211 W/m² | - |
| 1777292319 | 6.67° C | 95% | 1025.7 hPa | 0 mm | - | 190 W/m² | - |
* Rain latest hour (hover to see other rain measurements)
** Current wind speed in m/s (hover to see current wind gust speed)